NCAI

Details ICAO NCAI (AIT)
Name Aitutaki
Region Cook Islands
Timezone Unknown (UTC+0.0)
Plans Departing 11
Arriving 18
Stats Elevation 20 ft / 6 m (AMSL)
Location -18.837078° -159.761026°
Runways 1
Magnetic Variation 13.144° E
Sunrise 2017-12-12 15:57:02 UTC / 2017-12-12 15:57:02 Local
Sunset 2017-12-13 05:11:47 UTC / 2017-12-13 05:11:47 Local
Advertisement - Login to hide

Runways

ID Width Length Bearing (true) Bearing (mag) Surface Threshold Offset Overrun Length
14 102 ft / 31 m 6,008 ft / 1,831 m 154.20° 141.06° Asphalt 0 ft / 0 m 0 ft / 0 m
32 102 ft / 31 m 6,008 ft / 1,831 m 334.20° 321.06° Asphalt 0 ft / 0 m 0 ft / 0 m

Map

Weather


0- 5 10 15 20 25 30 35+ Temperature / ° C

Clouds and Precipitation
Forecast for 2017-12-13 06:00 UTC. Updated 2 minutes ago

Ground ~20,000 ft ~40,000 ft Winds

METAR

NCAI 130500Z AUTO 36006KT 310V040 //// ////// 25/25 Q1008

TAF

Not found

Frequencies

Unicom 118.10 MHz CTAF
Warning: Do not use this data for real-world aviation or navigation. No guarantee of current accuracy is given.